KCLW

Clearwater Airpark

Clearwater, Florida, USA
METAR KCLW 220955Z AUTO 00000KT 7SM BKN008 BKN013 22/22 A3003 RMK AO2
Observed Flight Rules
May-22 @ 09:55 UTC (23 minutes ago) Instrument Flight Rules
Visibility Clouds
7 miles
  • Broken at 800' AGL
  • Broken at 1,300' AGL
Temperatures Readings
Current 22°C / 72°F
Dewpoint 22°C / 72°F
Humidity 100%
Altimeter 30.03" Hg
Pressure 1017 hPa
Elevation 22
METAR KCLW 220955Z AUTO 00000KT 7SM BKN008 BKN013 22/22 A3003 RMK AO2
Observed Flight Rules
May-22 @ 09:55 UTC
(23 minutes ago)
IFR
Clouds
  • Broken at 800' AGL
  • Broken at 1,300' AGL
Temperature Dewpoint
22°C / 72°F 22°C / 72°F
Humidity Altimeter Pressure
100% 30.03" Hg 1017 hPa